Time;durP1;ratioP1;P1;durP2;ratioP2;P2;SDS_P1;SDS_P2;PMS_P1;PMS_P2;Temp;Humidity;BMP_temperature;BMP_pressure;BME280_temperature;BME280_humidity;BME280_pressure;Samples;Min_cycle;Max_cycle;Signal;HPM_P1;HPM_P2
2023/06/25 00:00:10;;;;;;;13.65;8.48;;;20.80;99.90;;;;;;4992848;28;20061;-71
2023/06/25 00:02:35;;;;;;;11.50;7.28;;;20.80;99.90;;;;;;4996086;28;20541;-71
2023/06/25 00:05:01;;;;;;;9.70;6.80;;;21.00;99.90;;;;;;4978085;28;20042;-71
2023/06/25 00:07:26;;;;;;;10.93;6.97;;;20.80;99.90;;;;;;4960352;28;20042;-70
2023/06/25 00:09:56;;;;;;;10.40;8.18;;;20.80;99.90;;;;;;4993583;28;20041;-71
2023/06/25 00:12:22;;;;;;;16.75;8.07;;;21.10;99.90;;;;;;4976537;28;20085;-70
2023/06/25 00:14:49;;;;;;;9.07;7.22;;;20.90;99.90;;;;;;4976275;28;20030;-71
2023/06/25 00:17:19;;;;;;;10.57;7.90;;;20.80;99.90;;;;;;4976052;28;20127;-71
2023/06/25 00:19:45;;;;;;;10.65;7.70;;;21.10;99.90;;;;;;4959406;28;20499;-71
2023/06/25 00:22:11;;;;;;;11.63;8.27;;;21.00;99.90;;;;;;4975431;28;20039;-70
2023/06/25 00:24:40;;;;;;;10.80;7.53;;;20.90;99.90;;;;;;4966704;28;20121;-70
2023/06/25 00:27:06;;;;;;;16.33;8.50;;;20.80;99.90;;;;;;4984117;28;20057;-70
2023/06/25 00:29:33;;;;;;;10.77;7.88;;;20.90;99.90;;;;;;4974727;28;20383;-70
2023/06/25 00:31:58;;;;;;;10.00;7.72;;;20.70;99.90;;;;;;4975008;28;20165;-70
2023/06/25 00:34:24;;;;;;;10.63;7.72;;;20.70;99.90;;;;;;4975128;28;20133;-70
2023/06/25 00:36:52;;;;;;;10.57;8.18;;;20.90;99.90;;;;;;4992041;28;20494;-70
2023/06/25 00:39:21;;;;;;;11.38;8.38;;;20.60;99.90;;;;;;4958669;28;20149;-70
2023/06/25 00:41:48;;;;;;;15.25;8.80;;;20.80;99.90;;;;;;4992605;28;20089;-70
2023/06/25 00:44:14;;;;;;;12.27;8.60;;;21.00;99.90;;;;;;4974964;28;20046;-70
2023/06/25 00:46:39;;;;;;;11.30;8.35;;;20.70;99.90;;;;;;4974852;28;20038;-70
2023/06/25 00:49:06;;;;;;;11.93;8.80;;;20.80;99.90;;;;;;4958064;28;20153;-70
2023/06/25 00:51:37;;;;;;;13.38;8.00;;;20.70;99.90;;;;;;4975109;28;20540;-70
2023/06/25 00:54:05;;;;;;;12.93;8.75;;;20.60;99.90;;;;;;4974806;28;20058;-70
2023/06/25 00:56:37;;;;;;;12.10;8.40;;;20.40;99.90;;;;;;4974592;28;20418;-70
2023/06/25 00:59:03;;;;;;;11.17;8.40;;;20.40;99.90;;;;;;4973931;28;20042;-70
2023/06/25 01:01:36;;;;;;;13.88;9.55;;;20.40;99.90;;;;;;4958604;28;20042;-70
2023/06/25 01:04:25;;;;;;;13.90;9.60;;;20.30;99.90;;;;;;4974515;28;20047;-70
2023/06/25 01:06:55;;;;;;;11.43;8.25;;;20.40;99.90;;;;;;4974244;28;20125;-71
2023/06/25 01:09:22;;;;;;;11.30;8.45;;;20.50;99.90;;;;;;4974692;28;20046;-70
2023/06/25 01:11:59;;;;;;;13.35;8.95;;;20.40;99.90;;;;;;4959796;28;20089;-70
2023/06/25 01:14:27;;;;;;;11.55;8.43;;;20.30;99.90;;;;;;4962420;28;20096;-70
2023/06/25 01:16:53;;;;;;;13.07;9.05;;;20.60;99.90;;;;;;4978035;28;20049;-70
2023/06/25 01:19:19;;;;;;;11.65;8.48;;;20.50;99.90;;;;;;4978070;28;20034;-70
2023/06/25 01:21:46;;;;;;;13.32;8.48;;;20.30;99.90;;;;;;4978606;28;20100;-70
2023/06/25 01:24:12;;;;;;;12.77;8.73;;;20.60;99.90;;;;;;4978278;28;20042;-70
2023/06/25 01:26:38;;;;;;;9.98;7.18;;;20.30;99.90;;;;;;4962492;28;20041;-70
2023/06/25 01:29:03;;;;;;;10.90;8.77;;;20.40;99.90;;;;;;4995146;28;20077;-70
2023/06/25 01:31:30;;;;;;;13.05;8.85;;;20.20;99.90;;;;;;4996619;28;20037;-70
2023/06/25 01:33:57;;;;;;;9.60;7.40;;;20.20;99.90;;;;;;4981445;28;20042;-70
2023/06/25 01:36:22;;;;;;;12.70;8.85;;;20.40;99.90;;;;;;4978072;28;20042;-70
2023/06/25 01:38:48;;;;;;;12.82;8.73;;;20.20;99.90;;;;;;4977339;28;20105;-70
2023/06/25 01:41:14;;;;;;;9.50;7.80;;;20.00;99.90;;;;;;4978048;28;20118;-70
2023/06/25 01:43:40;;;;;;;12.00;8.50;;;20.20;99.90;;;;;;4995657;28;20030;-70
2023/06/25 01:46:06;;;;;;;13.27;9.10;;;20.10;99.90;;;;;;4977991;28;20046;-70
2023/06/25 01:48:31;;;;;;;10.88;8.13;;;20.10;99.90;;;;;;4977661;28;20050;-70
2023/06/25 01:50:58;;;;;;;10.38;8.18;;;20.00;99.90;;;;;;4978125;28;20443;-70
2023/06/25 01:53:23;;;;;;;9.07;7.65;;;20.00;99.90;;;;;;4978078;28;20049;-70
2023/06/25 01:55:49;;;;;;;11.80;8.25;;;20.00;99.90;;;;;;4978123;28;20034;-70
2023/06/25 01:58:14;;;;;;;10.55;8.60;;;20.10;99.90;;;;;;4977106;28;20042;-70
2023/06/25 02:00:40;;;;;;;9.23;7.57;;;20.00;99.90;;;;;;4977440;28;20038;-70
2023/06/25 02:03:06;;;;;;;9.52;8.05;;;20.00;99.90;;;;;;4995020;28;20105;-70
2023/06/25 02:05:31;;;;;;;13.80;7.63;;;19.90;99.90;;;;;;4995042;28;20043;-70
2023/06/25 02:07:57;;;;;;;15.18;9.90;;;20.00;99.90;;;;;;4976962;28;20039;-70
2023/06/25 02:10:23;;;;;;;10.18;7.75;;;19.90;99.90;;;;;;4977647;28;20044;-70
2023/06/25 02:12:48;;;;;;;10.98;8.88;;;19.80;99.90;;;;;;4995077;28;20042;-70
2023/06/25 02:15:14;;;;;;;12.27;8.63;;;20.00;99.90;;;;;;4977351;28;20038;-70
2023/06/25 02:17:40;;;;;;;12.05;8.43;;;20.00;99.90;;;;;;4994293;28;20038;-70
2023/06/25 02:20:06;;;;;;;11.05;9.13;;;19.90;99.90;;;;;;4994614;28;20442;-70
2023/06/25 02:22:32;;;;;;;13.52;9.50;;;19.60;99.90;;;;;;4977178;28;20494;-70
2023/06/25 02:24:57;;;;;;;13.60;8.63;;;19.80;99.90;;;;;;4976761;28;20088;-70
2023/06/25 02:27:23;;;;;;;13.63;9.15;;;19.80;99.90;;;;;;4976891;28;20093;-70
2023/06/25 02:29:49;;;;;;;13.32;8.57;;;19.70;99.90;;;;;;4976954;28;20509;-70
2023/06/25 02:32:14;;;;;;;11.68;8.20;;;19.90;99.90;;;;;;4977124;28;20125;-70
2023/06/25 02:34:40;;;;;;;10.45;8.57;;;20.00;99.90;;;;;;4977114;28;20042;-70
2023/06/25 02:37:15;;;;;;;14.23;9.50;;;19.80;99.90;;;;;;4976520;28;20463;-70
2023/06/25 02:39:41;;;;;;;12.20;9.05;;;19.50;99.90;;;;;;4976723;28;20038;-70
2023/06/25 02:42:07;;;;;;;14.80;9.27;;;19.60;99.90;;;;;;4960909;28;20092;-70
2023/06/25 02:44:32;;;;;;;10.20;8.65;;;19.40;99.90;;;;;;4976940;28;20034;-70
2023/06/25 02:46:58;;;;;;;12.50;9.05;;;19.50;99.90;;;;;;4976423;28;20553;-70
2023/06/25 02:49:24;;;;;;;12.38;8.55;;;19.60;99.90;;;;;;4976579;28;20193;-70
2023/06/25 02:51:49;;;;;;;11.68;8.38;;;19.60;99.90;;;;;;4976789;28;20050;-70
2023/06/25 02:54:15;;;;;;;13.32;9.77;;;19.40;99.90;;;;;;4975748;28;20422;-70
2023/06/25 02:56:41;;;;;;;12.73;8.85;;;19.50;99.90;;;;;;4960569;28;20078;-70
2023/06/25 02:59:06;;;;;;;13.15;8.60;;;20.10;99.90;;;;;;4975816;28;20521;-70
2023/06/25 03:01:32;;;;;;;11.18;9.30;;;19.40;99.90;;;;;;4976057;28;20042;-70
2023/06/25 03:03:57;;;;;;;10.70;9.10;;;19.40;99.90;;;;;;4959879;28;20034;-70
2023/06/25 03:06:23;;;;;;;13.27;9.27;;;19.50;99.90;;;;;;4976236;28;20196;-70
2023/06/25 03:08:49;;;;;;;12.77;9.80;;;19.50;99.90;;;;;;4975129;28;20034;-70
2023/06/25 03:11:14;;;;;;;12.77;8.85;;;19.40;99.90;;;;;;4976066;28;20051;-70
2023/06/25 03:13:40;;;;;;;11.80;9.73;;;19.40;99.90;;;;;;4960185;28;20038;-70
2023/06/25 03:16:05;;;;;;;11.02;9.13;;;19.40;99.90;;;;;;4976049;28;20495;-70
2023/06/25 03:18:31;;;;;;;14.07;10.32;;;19.30;99.90;;;;;;4975514;28;20045;-70
2023/06/25 03:20:56;;;;;;;14.95;9.07;;;19.40;99.90;;;;;;4976210;28;20038;-70
2023/06/25 03:23:22;;;;;;;12.32;8.93;;;19.30;99.90;;;;;;4976459;28;20498;-70
2023/06/25 03:25:48;;;;;;;12.95;9.60;;;19.40;99.90;;;;;;4976606;28;20074;-70
2023/06/25 03:28:13;;;;;;;12.57;9.02;;;19.40;99.90;;;;;;4993194;28;20046;-70
2023/06/25 03:30:39;;;;;;;15.02;10.15;;;19.40;99.90;;;;;;4993589;28;20042;-70
2023/06/25 03:33:05;;;;;;;16.02;8.80;;;19.40;99.90;;;;;;4959924;28;20050;-70
2023/06/25 03:35:30;;;;;;;15.38;9.70;;;19.60;99.90;;;;;;4976128;28;20109;-70
2023/06/25 03:37:56;;;;;;;13.75;9.75;;;19.70;99.90;;;;;;4975469;28;20053;-70
2023/06/25 03:40:21;;;;;;;13.52;9.88;;;19.40;99.90;;;;;;4976442;28;20034;-70
2023/06/25 03:42:47;;;;;;;13.02;9.88;;;19.50;99.90;;;;;;4975996;28;20077;-70
2023/06/25 03:45:15;;;;;;;11.65;8.95;;;19.30;99.90;;;;;;4960213;28;20065;-70
2023/06/25 03:47:41;;;;;;;13.82;10.30;;;19.10;99.90;;;;;;4975590;28;20457;-70
2023/06/25 03:50:07;;;;;;;12.65;9.75;;;19.40;99.90;;;;;;4975391;28;20114;-69
2023/06/25 03:52:32;;;;;;;10.98;8.77;;;19.40;99.90;;;;;;4993094;28;20072;-69
2023/06/25 03:54:58;;;;;;;15.70;9.93;;;19.30;99.90;;;;;;4974793;28;20042;-69
2023/06/25 03:57:24;;;;;;;13.82;9.93;;;19.40;99.90;;;;;;4992546;28;20050;-69
2023/06/25 03:59:50;;;;;;;10.23;8.90;;;19.30;99.90;;;;;;4959676;28;20045;-69
2023/06/25 04:02:15;;;;;;;14.43;10.10;;;19.40;99.90;;;;;;4995128;28;20496;-69
2023/06/25 04:04:41;;;;;;;12.48;9.55;;;19.30;99.90;;;;;;4978731;28;20037;-69
2023/06/25 04:07:06;;;;;;;13.60;9.52;;;19.30;99.90;;;;;;4994197;28;20839;-69
2023/06/25 04:09:32;;;;;;;14.23;10.27;;;19.50;99.90;;;;;;4994281;28;20042;-70
2023/06/25 04:11:58;;;;;;;12.27;9.80;;;19.30;99.90;;;;;;4994776;28;20069;-70
2023/06/25 04:14:24;;;;;;;12.95;9.52;;;19.50;99.90;;;;;;4994948;28;20527;-69
2023/06/25 04:16:49;;;;;;;13.98;9.85;;;19.60;99.90;;;;;;4994292;28;20521;-69
2023/06/25 04:19:15;;;;;;;14.50;9.57;;;19.30;99.90;;;;;;4994266;28;20501;-70
2023/06/25 04:21:40;;;;;;;15.45;9.65;;;19.60;99.90;;;;;;4994664;28;20034;-70
2023/06/25 04:24:06;;;;;;;12.98;10.60;;;19.60;99.90;;;;;;4978564;28;20037;-70
2023/06/25 04:26:32;;;;;;;12.57;9.48;;;19.60;99.90;;;;;;5012176;28;20037;-70
2023/06/25 04:28:58;;;;;;;15.68;9.45;;;19.80;99.90;;;;;;4993470;28;20192;-70
2023/06/25 04:31:24;;;;;;;13.40;9.80;;;20.20;99.90;;;;;;4994783;28;20570;-70
2023/06/25 04:33:50;;;;;;;13.63;9.63;;;19.60;99.90;;;;;;4994678;28;20041;-70
2023/06/25 04:36:18;;;;;;;14.82;10.48;;;19.70;99.90;;;;;;4994488;28;20395;-70
2023/06/25 04:38:43;;;;;;;14.98;10.18;;;19.50;99.90;;;;;;4993678;28;20038;-70
2023/06/25 04:41:09;;;;;;;13.07;9.32;;;19.90;99.90;;;;;;4994327;28;20087;-70
2023/06/25 04:43:34;;;;;;;14.90;9.57;;;19.80;99.90;;;;;;4978421;28;20114;-70
2023/06/25 04:46:00;;;;;;;12.77;9.30;;;19.80;99.90;;;;;;4993861;28;20494;-70
2023/06/25 04:48:26;;;;;;;11.13;8.57;;;19.80;99.90;;;;;;4977426;28;20050;-70
2023/06/25 04:50:51;;;;;;;12.75;9.80;;;20.80;99.90;;;;;;4977947;28;20069;-70
2023/06/25 04:53:17;;;;;;;12.40;9.70;;;19.80;99.90;;;;;;4994115;28;20041;-70
2023/06/25 04:55:43;;;;;;;13.77;10.43;;;20.10;99.90;;;;;;4994132;28;20037;-70
2023/06/25 04:58:08;;;;;;;16.25;10.32;;;19.90;99.90;;;;;;4993889;28;20034;-70
2023/06/25 05:00:34;;;;;;;13.73;9.90;;;20.00;99.90;;;;;;4994069;28;20100;-70
2023/06/25 05:03:00;;;;;;;12.55;9.05;;;20.20;99.90;;;;;;4994290;28;20126;-70
2023/06/25 05:05:25;;;;;;;14.20;9.25;;;20.20;99.90;;;;;;4994338;28;20042;-70
2023/06/25 05:07:51;;;;;;;16.00;9.95;;;20.70;99.90;;;;;;4993765;28;20042;-71
2023/06/25 05:10:19;;;;;;;10.43;8.45;;;20.30;99.90;;;;;;4994170;28;20069;-70
2023/06/25 05:12:44;;;;;;;13.48;9.30;;;20.30;99.90;;;;;;5011580;28;20540;-70
2023/06/25 05:15:10;;;;;;;10.98;9.25;;;20.50;99.90;;;;;;4993939;28;20042;-70
2023/06/25 05:17:36;;;;;;;11.68;9.02;;;20.70;99.90;;;;;;4993351;28;20049;-70
2023/06/25 05:20:01;;;;;;;14.30;9.13;;;20.60;99.90;;;;;;5011387;28;20502;-70
2023/06/25 05:22:27;;;;;;;12.85;8.52;;;20.70;99.90;;;;;;5011530;28;20461;-70
2023/06/25 05:24:53;;;;;;;12.27;8.48;;;20.70;99.90;;;;;;4993918;28;20041;-70
2023/06/25 05:27:18;;;;;;;10.50;8.80;;;20.80;99.90;;;;;;4993724;28;20125;-70
2023/06/25 05:29:44;;;;;;;10.65;8.40;;;20.90;99.90;;;;;;4993632;28;20040;-70
2023/06/25 05:32:09;;;;;;;10.57;7.47;;;21.20;99.90;;;;;;4993937;28;20116;-70
2023/06/25 05:34:35;;;;;;;11.20;7.70;;;20.90;99.90;;;;;;4993873;28;20403;-70
2023/06/25 05:37:01;;;;;;;11.15;8.18;;;21.10;99.90;;;;;;5010828;28;20050;-69
2023/06/25 05:39:29;;;;;;;10.82;8.05;;;21.10;99.90;;;;;;4993557;28;20046;-70
2023/06/25 05:41:58;;;;;;;9.48;8.20;;;21.10;99.90;;;;;;4993762;28;20091;-70
2023/06/25 05:44:26;;;;;;;10.35;8.07;;;21.30;99.90;;;;;;4993945;28;20049;-69
2023/06/25 05:46:53;;;;;;;9.52;7.47;;;21.30;99.90;;;;;;4993290;28;20045;-69
2023/06/25 05:49:19;;;;;;;10.55;8.23;;;21.30;99.90;;;;;;4993388;28;20077;-69
2023/06/25 05:51:44;;;;;;;8.55;7.38;;;21.40;99.90;;;;;;4993634;28;20105;-69
2023/06/25 05:54:10;;;;;;;8.60;7.07;;;21.60;99.90;;;;;;4993466;28;20045;-70
2023/06/25 05:56:36;;;;;;;9.90;7.35;;;21.70;99.90;;;;;;5011207;28;20046;-69
2023/06/25 05:59:01;;;;;;;11.68;7.40;;;21.70;99.90;;;;;;4994322;28;20397;-69
2023/06/25 06:01:27;;;;;;;8.38;7.03;;;21.50;99.90;;;;;;4997271;28;20034;-69
2023/06/25 06:03:53;;;;;;;10.95;6.53;;;21.90;99.90;;;;;;4997003;28;20036;-69
2023/06/25 06:06:18;;;;;;;8.65;6.38;;;22.00;99.90;;;;;;4997318;28;20158;-70
2023/06/25 06:08:44;;;;;;;10.90;7.20;;;22.00;99.90;;;;;;4996615;28;20490;-70
2023/06/25 06:11:10;;;;;;;8.52;6.55;;;22.10;99.90;;;;;;4997194;28;20125;-69
2023/06/25 06:13:36;;;;;;;8.02;6.30;;;22.20;99.90;;;;;;4997214;28;20136;-70
2023/06/25 06:16:02;;;;;;;10.95;6.80;;;22.10;99.90;;;;;;4996842;28;20129;-69
2023/06/25 06:18:28;;;;;;;10.20;6.60;;;22.30;99.90;;;;;;4996187;28;20045;-70
2023/06/25 06:20:53;;;;;;;8.07;6.68;;;23.00;99.90;;;;;;4996685;28;20413;-70
2023/06/25 06:23:19;;;;;;;8.48;6.88;;;22.50;99.90;;;;;;4996969;28;20064;-70
2023/06/25 06:25:45;;;;;;;9.30;7.63;;;22.60;99.90;;;;;;4996720;28;20054;-70
2023/06/25 06:28:10;;;;;;;8.45;7.53;;;22.60;99.90;;;;;;4996159;28;20124;-70
2023/06/25 06:30:36;;;;;;;10.15;7.68;;;22.80;99.90;;;;;;4995872;28;20125;-70
2023/06/25 06:33:02;;;;;;;11.85;7.60;;;22.80;99.90;;;;;;5013776;28;20034;-70
2023/06/25 06:35:27;;;;;;;9.70;7.35;;;22.80;99.90;;;;;;4996380;28;20457;-70
2023/06/25 06:37:53;;;;;;;9.30;7.13;;;22.90;99.90;;;;;;4995746;28;20037;-70
2023/06/25 06:40:18;;;;;;;8.15;7.30;;;23.20;99.90;;;;;;4979665;28;20052;-70
2023/06/25 06:42:44;;;;;;;9.93;8.02;;;23.20;99.90;;;;;;4993533;28;20033;-70
2023/06/25 06:45:10;;;;;;;12.95;7.47;;;23.30;99.90;;;;;;5013419;28;20030;-70
2023/06/25 06:47:36;;;;;;;10.93;8.15;;;23.30;99.90;;;;;;4979202;28;20048;-71
2023/06/25 06:50:02;;;;;;;11.55;8.88;;;23.40;99.90;;;;;;4995166;28;20042;-69
2023/06/25 06:52:27;;;;;;;10.63;8.02;;;23.60;99.90;;;;;;4979639;28;20034;-70
2023/06/25 06:54:53;;;;;;;10.25;8.80;;;23.60;99.90;;;;;;5013033;28;20482;-70
2023/06/25 06:57:19;;;;;;;11.93;8.85;;;23.60;99.90;;;;;;4990371;28;20128;-69
2023/06/25 06:59:45;;;;;;;15.57;7.90;;;23.70;99.90;;;;;;4994539;28;20378;-69
2023/06/25 07:02:11;;;;;;;12.98;7.60;;;23.90;99.90;;;;;;4996085;28;20398;-69
2023/06/25 07:04:38;;;;;;;10.75;9.27;;;24.10;99.90;;;;;;4995668;28;20034;-69
2023/06/25 07:07:04;;;;;;;11.63;9.60;;;24.00;99.90;;;;;;4994897;28;20121;-69
2023/06/25 07:09:30;;;;;;;11.73;8.95;;;24.20;99.90;;;;;;4978870;28;20077;-69
2023/06/25 07:11:55;;;;;;;9.80;8.10;;;24.40;99.90;;;;;;4995640;28;20069;-69
2023/06/25 07:14:21;;;;;;;10.25;8.82;;;24.20;99.90;;;;;;4995599;28;20042;-69
2023/06/25 07:16:47;;;;;;;12.20;9.70;;;24.50;99.90;;;;;;4971546;28;20037;-70
2023/06/25 07:19:12;;;;;;;12.60;9.52;;;24.30;99.90;;;;;;4994154;28;20045;-69
2023/06/25 07:21:39;;;;;;;11.30;8.57;;;26.40;99.90;;;;;;4995280;28;20034;-69
2023/06/25 07:24:05;;;;;;;12.10;9.35;;;24.80;99.90;;;;;;4995446;28;20127;-69
2023/06/25 07:26:31;;;;;;;13.52;10.68;;;24.80;99.90;;;;;;4995816;28;20438;-69
2023/06/25 07:28:56;;;;;;;13.80;9.90;;;24.90;99.90;;;;;;4994856;28;20042;-69
2023/06/25 07:31:22;;;;;;;13.82;11.13;;;25.10;99.90;;;;;;4995464;28;20045;-69
2023/06/25 07:33:48;;;;;;;14.30;10.85;;;24.90;99.90;;;;;;4995310;28;20050;-69
2023/06/25 07:36:13;;;;;;;12.88;9.85;;;25.00;99.90;;;;;;4995560;28;20062;-69
2023/06/25 07:38:39;;;;;;;13.00;10.05;;;25.10;99.90;;;;;;4978609;28;20044;-70
2023/06/25 07:41:05;;;;;;;10.93;9.80;;;25.30;99.90;;;;;;4994695;28;20038;-69
2023/06/25 07:43:30;;;;;;;11.77;10.57;;;25.40;99.90;;;;;;4995442;28;20038;-69
2023/06/25 07:45:56;;;;;;;11.70;9.63;;;25.50;99.90;;;;;;4995261;28;20042;-70
2023/06/25 07:48:22;;;;;;;12.57;9.73;;;25.50;99.90;;;;;;4994504;28;20449;-69
2023/06/25 07:50:47;;;;;;;11.88;10.40;;;25.60;99.90;;;;;;4978930;28;20044;-70
2023/06/25 07:53:13;;;;;;;16.75;10.32;;;25.50;99.90;;;;;;5002480;28;20042;-69
2023/06/25 07:55:40;;;;;;;10.45;9.18;;;25.80;99.90;;;;;;4993494;28;20493;-70
2023/06/25 07:58:07;;;;;;;11.60;9.70;;;25.70;99.90;;;;;;4994729;28;20452;-70
2023/06/25 08:00:33;;;;;;;11.38;9.70;;;25.80;99.90;;;;;;4994511;28;20038;-69
2023/06/25 08:02:59;;;;;;;11.13;9.95;;;26.00;99.90;;;;;;4994828;28;20485;-69
2023/06/25 08:05:25;;;;;;;12.27;9.65;;;26.30;99.90;;;;;;4994892;28;20042;-71
2023/06/25 08:07:51;;;;;;;12.38;10.23;;;26.20;99.90;;;;;;4994201;28;20046;-70
2023/06/25 08:10:16;;;;;;;12.32;9.93;;;26.40;99.90;;;;;;4974661;28;20042;-70
2023/06/25 08:12:42;;;;;;;12.77;8.52;;;26.30;99.90;;;;;;4991829;28;20491;-70
2023/06/25 08:15:08;;;;;;;9.18;8.27;;;26.30;99.90;;;;;;4994000;28;20509;-71
2023/06/25 08:17:34;;;;;;;9.18;7.63;;;26.40;99.90;;;;;;4993601;28;20029;-70
2023/06/25 08:20:00;;;;;;;11.52;8.55;;;26.70;99.90;;;;;;4978088;28;20064;-70
2023/06/25 08:22:26;;;;;;;10.10;8.98;;;26.60;99.90;;;;;;4993485;28;20498;-70
2023/06/25 08:24:52;;;;;;;9.63;8.07;;;26.80;99.90;;;;;;4993651;28;20038;-71
2023/06/25 08:27:17;;;;;;;9.68;7.20;;;26.60;99.90;;;;;;4993287;28;20057;-70
2023/06/25 08:29:43;;;;;;;9.00;7.95;;;26.70;99.90;;;;;;4994151;28;20045;-70
2023/06/25 08:32:08;;;;;;;13.05;8.68;;;26.80;99.90;;;;;;4994374;28;20120;-71
2023/06/25 08:34:34;;;;;;;8.88;7.90;;;26.80;99.90;;;;;;4994343;28;20084;-70
2023/06/25 08:37:00;;;;;;;9.10;7.07;;;26.90;99.90;;;;;;4979059;28;20073;-70
2023/06/25 08:39:25;;;;;;;7.80;7.00;;;26.90;99.90;;;;;;4974585;28;20132;-70
2023/06/25 08:41:51;;;;;;;9.38;8.13;;;27.10;99.90;;;;;;4977457;28;20083;-70
2023/06/25 08:44:16;;;;;;;9.23;7.22;;;27.10;99.90;;;;;;4993776;28;20041;-70
2023/06/25 08:46:49;;;;;;;7.80;7.00;;;27.10;99.90;;;;;;4990930;28;20359;-70
2023/06/25 08:49:16;;;;;;;7.90;7.05;;;27.40;99.90;;;;;;4977235;28;20048;-70
2023/06/25 08:51:42;;;;;;;6.75;5.97;;;27.20;99.90;;;;;;4994023;28;20037;-70
2023/06/25 08:54:09;;;;;;;6.30;5.70;;;27.40;99.90;;;;;;4993683;28;20521;-70
2023/06/25 08:56:34;;;;;;;8.73;6.38;;;27.40;99.90;;;;;;5009866;28;20038;-70
2023/06/25 08:59:00;;;;;;;6.30;5.35;;;27.50;99.90;;;;;;5009265;28;20030;-69
2023/06/25 09:01:26;;;;;;;9.70;5.68;;;27.60;99.90;;;;;;5011013;28;20121;-69
2023/06/25 09:03:52;;;;;;;8.38;5.75;;;27.70;99.90;;;;;;4993987;28;20046;-69
2023/06/25 09:06:19;;;;;;;7.10;5.68;;;27.60;99.90;;;;;;4993122;28;20457;-69
2023/06/25 09:08:45;;;;;;;8.00;5.07;;;27.80;99.90;;;;;;4993011;28;20044;-69
2023/06/25 09:11:11;;;;;;;7.07;5.43;;;28.10;99.90;;;;;;4993157;28;20034;-70
2023/06/25 09:13:38;;;;;;;6.00;5.40;;;27.80;99.90;;;;;;4993409;28;20034;-70
2023/06/25 09:16:07;;;;;;;8.00;5.03;;;28.10;99.90;;;;;;5011004;28;20540;-70
2023/06/25 09:18:32;;;;;;;7.35;5.28;;;28.10;99.90;;;;;;5035928;22;20055;-72
2023/06/25 09:21:06;;;;;;;8.98;5.13;;;28.20;99.90;;;;;;5110896;28;20032;-72
2023/06/25 09:23:32;;;;;;;5.68;4.30;;;28.00;99.90;;;;;;5095326;28;20036;-71
2023/06/25 09:26:02;;;;;;;5.63;5.03;;;28.40;99.90;;;;;;5090133;28;20036;-72
2023/06/25 09:28:28;;;;;;;5.03;4.32;;;28.30;99.80;;;;;;5089434;28;20154;-72
2023/06/25 09:30:57;;;;;;;7.55;4.72;;;28.40;99.80;;;;;;5075745;28;20485;-72
2023/06/25 09:33:30;;;;;;;6.93;4.50;;;28.50;99.90;;;;;;5077499;28;20031;-71
2023/06/25 09:36:01;;;;;;;7.22;4.55;;;28.70;99.80;;;;;;5114547;28;20032;-71
2023/06/25 09:38:26;;;;;;;6.22;3.88;;;28.60;99.10;;;;;;5093857;28;20027;-72
2023/06/25 09:40:53;;;;;;;4.70;4.20;;;28.60;98.80;;;;;;5095987;28;20032;-72
2023/06/25 09:43:20;;;;;;;6.25;4.63;;;28.70;98.80;;;;;;5095384;28;20075;-71
2023/06/25 09:45:46;;;;;;;6.63;3.95;;;28.80;99.10;;;;;;5079471;28;20122;-71
2023/06/25 09:48:12;;;;;;;5.80;4.03;;;29.00;99.50;;;;;;5098553;28;20259;-71
2023/06/25 09:50:42;;;;;;;5.85;3.70;;;28.90;99.30;;;;;;5084039;28;20071;-72
2023/06/25 09:53:14;;;;;;;7.78;4.22;;;28.90;97.90;;;;;;5100068;28;20039;-71
2023/06/25 09:55:40;;;;;;;5.43;3.95;;;29.00;98.50;;;;;;5098976;28;20039;-71
2023/06/25 09:58:06;;;;;;;4.55;4.15;;;29.00;98.50;;;;;;5095826;28;20076;-70
2023/06/25 10:00:33;;;;;;;5.90;4.18;;;28.80;97.70;;;;;;5096255;28;20040;-72
2023/06/25 10:03:00;;;;;;;5.32;4.55;;;29.20;98.30;;;;;;5114881;28;20092;-70
2023/06/25 10:05:26;;;;;;;5.80;3.95;;;29.10;98.30;;;;;;5114595;28;20051;-72
2023/06/25 10:07:52;;;;;;;7.68;4.03;;;29.20;98.00;;;;;;5096117;28;20039;-72
2023/06/25 10:10:28;;;;;;;5.28;3.67;;;29.30;98.00;;;;;;5096547;28;20059;-72
2023/06/25 10:12:53;;;;;;;4.07;3.67;;;29.30;97.50;;;;;;5096910;28;20050;-71
2023/06/25 10:15:33;;;;;;;4.25;3.67;;;29.70;99.80;;;;;;5096756;28;20406;-71
2023/06/25 10:18:06;;;;;;;5.15;3.78;;;29.30;98.40;;;;;;5115000;28;20069;-72
2023/06/25 10:20:36;;;;;;;4.35;3.50;;;29.60;98.90;;;;;;5096396;28;20034;-72
2023/06/25 10:23:10;;;;;;;6.32;3.78;;;29.40;98.60;;;;;;5114987;28;20032;-72
2023/06/25 10:25:51;;;;;;;4.22;3.47;;;29.80;98.10;;;;;;5114894;28;20499;-71
2023/06/25 10:28:16;;;;;;;4.43;3.83;;;29.70;98.00;;;;;;5096178;28;20174;-73
2023/06/25 10:30:49;;;;;;;5.90;4.13;;;30.00;98.00;;;;;;5096284;28;20173;-72
2023/06/25 10:33:18;;;;;;;5.30;3.50;;;29.80;97.00;;;;;;5114734;28;20046;-72
2023/06/25 10:35:46;;;;;;;3.70;3.38;;;29.80;96.70;;;;;;5096191;28;20039;-71
2023/06/25 10:38:12;;;;;;;4.80;3.47;;;29.90;97.40;;;;;;5114122;28;20167;-71
2023/06/25 10:40:39;;;;;;;4.07;3.28;;;30.20;97.50;;;;;;5114968;28;20032;-72
2023/06/25 10:43:06;;;;;;;5.15;2.97;;;30.20;97.40;;;;;;5096326;28;20036;-72
2023/06/25 10:45:32;;;;;;;3.33;3.00;;;30.30;97.40;;;;;;5113754;28;20510;-71
2023/06/25 10:48:11;;;;;;;5.75;4.00;;;30.30;97.40;;;;;;5096233;28;20429;-72
2023/06/25 10:50:37;;;;;;;5.35;3.40;;;30.50;96.80;;;;;;5096405;28;20487;-71
2023/06/25 10:53:09;;;;;;;4.72;3.45;;;30.30;97.20;;;;;;5096298;28;20074;-71
2023/06/25 10:55:34;;;;;;;3.80;2.95;;;30.40;96.90;;;;;;5096139;28;20086;-71
2023/06/25 10:58:01;;;;;;;6.03;3.13;;;30.40;96.70;;;;;;5095774;28;20071;-71
2023/06/25 11:00:29;;;;;;;4.68;3.58;;;30.50;96.80;;;;;;5095812;28;20036;-71
2023/06/25 11:02:56;;;;;;;4.97;3.83;;;30.50;95.70;;;;;;5095820;28;20043;-70
2023/06/25 11:05:35;;;;;;;6.68;4.10;;;30.40;95.70;;;;;;5095806;28;20118;-70
2023/06/25 11:08:02;;;;;;;3.72;3.22;;;30.50;96.20;;;;;;5095599;28;20035;-71
2023/06/25 11:10:29;;;;;;;4.00;3.60;;;30.70;95.80;;;;;;5095864;28;20058;-71
2023/06/25 11:12:55;;;;;;;3.85;2.95;;;30.70;96.00;;;;;;5095790;28;20043;-71
2023/06/25 11:15:21;;;;;;;5.78;3.03;;;30.80;96.40;;;;;;5095495;28;20039;-70
2023/06/25 11:17:51;;;;;;;5.80;3.28;;;30.80;95.30;;;;;;5094928;28;20062;-71
2023/06/25 11:20:18;;;;;;;4.35;3.58;;;30.70;95.40;;;;;;5113359;28;20035;-71
2023/06/25 11:22:44;;;;;;;3.45;3.10;;;30.70;95.20;;;;;;5113815;28;20035;-71
2023/06/25 11:25:14;;;;;;;6.15;3.97;;;31.10;95.40;;;;;;5095364;28;20038;-71
2023/06/25 11:27:40;;;;;;;4.57;3.38;;;30.80;94.20;;;;;;5095188;28;20164;-71
2023/06/25 11:30:08;;;;;;;4.22;3.65;;;31.00;93.60;;;;;;5095050;28;20092;-71
2023/06/25 11:32:34;;;;;;;5.40;3.33;;;31.00;94.10;;;;;;5095512;28;20525;-71
2023/06/25 11:35:07;;;;;;;4.93;3.15;;;30.90;93.30;;;;;;5095137;28;20046;-71
2023/06/25 11:37:42;;;;;;;5.32;3.78;;;31.00;94.50;;;;;;5077887;28;20526;-71
2023/06/25 11:40:08;;;;;;;3.90;3.38;;;31.20;93.60;;;;;;5094891;28;20050;-71
2023/06/25 11:42:39;;;;;;;4.03;3.60;;;30.70;93.30;;;;;;5099567;28;20135;-72
2023/06/25 11:45:06;;;;;;;5.10;3.63;;;30.90;93.80;;;;;;5097694;28;20035;-71
2023/06/25 11:47:32;;;;;;;5.75;3.95;;;31.10;94.20;;;;;;5077712;28;20556;-71
2023/06/25 11:49:59;;;;;;;5.13;3.25;;;30.90;92.20;;;;;;5094602;28;20040;-71
2023/06/25 11:52:25;;;;;;;6.22;3.90;;;31.30;93.20;;;;;;5095137;28;20411;-71
2023/06/25 11:54:50;;;;;;;3.53;3.20;;;31.40;93.50;;;;;;5094875;28;20035;-71
2023/06/25 11:57:17;;;;;;;5.13;3.88;;;31.60;93.30;;;;;;5093210;28;20039;-71
2023/06/25 11:59:44;;;;;;;5.32;4.10;;;31.60;93.50;;;;;;5077713;28;20036;-71
2023/06/25 12:02:10;;;;;;;6.22;3.97;;;31.70;92.80;;;;;;5078036;28;20042;-71
2023/06/25 12:04:36;;;;;;;6.00;2.92;;;31.70;93.10;;;;;;5094457;28;20047;-72
2023/06/25 12:07:02;;;;;;;5.05;3.72;;;31.70;93.30;;;;;;5077237;28;20438;-71
2023/06/25 12:09:28;;;;;;;4.53;3.60;;;31.80;92.40;;;;;;5094441;28;20039;-72
2023/06/25 12:11:54;;;;;;;5.85;4.32;;;31.80;92.70;;;;;;5098690;28;20038;-72
2023/06/25 12:14:20;;;;;;;8.32;3.83;;;31.80;92.50;;;;;;5096759;28;20054;-71
2023/06/25 12:16:46;;;;;;;4.72;3.92;;;32.10;92.40;;;;;;5096780;28;20494;-72
2023/06/25 12:19:11;;;;;;;5.57;3.97;;;31.70;92.10;;;;;;5093644;28;20058;-71
2023/06/25 12:21:37;;;;;;;6.72;4.15;;;31.80;92.40;;;;;;5077643;28;20059;-71
2023/06/25 12:24:04;;;;;;;6.40;3.83;;;31.80;92.70;;;;;;5094318;28;20039;-70
2023/06/25 12:26:30;;;;;;;5.55;4.05;;;31.90;92.40;;;;;;5094638;28;20074;-72
2023/06/25 12:28:56;;;;;;;5.63;4.15;;;31.80;92.90;;;;;;5076960;28;20077;-71
2023/06/25 12:31:22;;;;;;;4.88;3.80;;;31.70;92.50;;;;;;5094170;28;20043;-72
2023/06/25 12:33:47;;;;;;;5.22;4.40;;;31.80;92.70;;;;;;5094392;28;20445;-70
2023/06/25 12:36:13;;;;;;;4.70;3.65;;;32.50;93.00;;;;;;5094119;28;20544;-70